Aviation Digital Data Service (ADDS)

Output produced by TAFs form (1340 UTC 28 September 2016)
found at http://www.aviationweather.gov/adds/tafs/
 
KSBY 281132Z 2812/2912 05005KT 5SM BR OVC025 
     FM281500 08009KT P6SM BKN035 
     FM281800 10009KT P6SM BKN070 
     FM282200 11007KT 5SM -SHRA BR OVC040